sensor_id;sensor_type;location;lat;lon;timestamp;P1;durP1;ratioP1;P2;durP2;ratioP2
55362;SDS011;41244;49.242;9.060;2023-08-20T00:00:11;9.63;;;8.63;;
55362;SDS011;41244;49.242;9.060;2023-08-20T00:02:38;10.65;;;9.07;;
55362;SDS011;41244;49.242;9.060;2023-08-20T00:05:08;10.55;;;9.30;;
55362;SDS011;41244;49.242;9.060;2023-08-20T00:07:35;10.02;;;9.02;;
55362;SDS011;41244;49.242;9.060;2023-08-20T00:10:02;11.23;;;8.63;;
55362;SDS011;41244;49.242;9.060;2023-08-20T00:12:29;10.98;;;9.48;;
55362;SDS011;41244;49.242;9.060;2023-08-20T00:14:56;10.63;;;9.48;;
55362;SDS011;41244;49.242;9.060;2023-08-20T00:17:30;12.55;;;9.57;;
55362;SDS011;41244;49.242;9.060;2023-08-20T00:20:04;12.55;;;10.02;;
55362;SDS011;41244;49.242;9.060;2023-08-20T00:22:37;10.52;;;9.45;;
55362;SDS011;41244;49.242;9.060;2023-08-20T00:25:04;10.63;;;9.20;;
55362;SDS011;41244;49.242;9.060;2023-08-20T00:27:31;10.05;;;9.15;;
55362;SDS011;41244;49.242;9.060;2023-08-20T00:29:57;10.23;;;8.57;;
55362;SDS011;41244;49.242;9.060;2023-08-20T00:32:23;12.38;;;9.75;;
55362;SDS011;41244;49.242;9.060;2023-08-20T00:34:49;10.95;;;9.25;;
55362;SDS011;41244;49.242;9.060;2023-08-20T00:37:15;10.23;;;9.27;;
55362;SDS011;41244;49.242;9.060;2023-08-20T00:39:41;12.82;;;9.40;;
55362;SDS011;41244;49.242;9.060;2023-08-20T00:42:07;10.15;;;9.07;;
55362;SDS011;41244;49.242;9.060;2023-08-20T00:44:33;9.70;;;8.70;;
55362;SDS011;41244;49.242;9.060;2023-08-20T00:47:00;10.02;;;9.02;;
55362;SDS011;41244;49.242;9.060;2023-08-20T00:49:27;9.65;;;8.77;;
55362;SDS011;41244;49.242;9.060;2023-08-20T00:51:54;9.68;;;8.77;;
55362;SDS011;41244;49.242;9.060;2023-08-20T00:54:20;12.32;;;9.27;;
55362;SDS011;41244;49.242;9.060;2023-08-20T00:56:48;10.88;;;9.40;;
55362;SDS011;41244;49.242;9.060;2023-08-20T00:59:15;12.32;;;9.43;;
55362;SDS011;41244;49.242;9.060;2023-08-20T01:01:41;10.07;;;9.18;;
55362;SDS011;41244;49.242;9.060;2023-08-20T01:04:08;11.00;;;9.85;;
55362;SDS011;41244;49.242;9.060;2023-08-20T01:12:22;12.52;;;8.93;;
55362;SDS011;41244;49.242;9.060;2023-08-20T01:14:48;10.90;;;9.15;;
55362;SDS011;41244;49.242;9.060;2023-08-20T01:17:13;9.43;;;8.57;;
55362;SDS011;41244;49.242;9.060;2023-08-20T01:19:39;11.77;;;9.40;;
55362;SDS011;41244;49.242;9.060;2023-08-20T01:22:13;11.98;;;9.82;;
55362;SDS011;41244;49.242;9.060;2023-08-20T01:30:32;10.38;;;9.25;;
55362;SDS011;41244;49.242;9.060;2023-08-20T01:32:59;10.18;;;9.18;;
55362;SDS011;41244;49.242;9.060;2023-08-20T01:35:25;12.50;;;9.27;;
55362;SDS011;41244;49.242;9.060;2023-08-20T01:37:51;10.07;;;9.07;;
55362;SDS011;41244;49.242;9.060;2023-08-20T01:40:17;15.02;;;10.70;;
55362;SDS011;41244;49.242;9.060;2023-08-20T01:42:43;10.48;;;9.55;;
55362;SDS011;41244;49.242;9.060;2023-08-20T01:45:09;10.27;;;9.32;;
55362;SDS011;41244;49.242;9.060;2023-08-20T01:47:35;10.40;;;9.35;;
55362;SDS011;41244;49.242;9.060;2023-08-20T01:50:01;11.23;;;9.93;;
55362;SDS011;41244;49.242;9.060;2023-08-20T01:52:27;12.73;;;9.77;;
55362;SDS011;41244;49.242;9.060;2023-08-20T01:54:54;10.90;;;9.90;;
55362;SDS011;41244;49.242;9.060;2023-08-20T01:57:20;10.50;;;9.20;;
55362;SDS011;41244;49.242;9.060;2023-08-20T01:59:47;12.52;;;10.52;;
55362;SDS011;41244;49.242;9.060;2023-08-20T02:02:13;10.88;;;9.82;;
55362;SDS011;41244;49.242;9.060;2023-08-20T02:04:39;11.48;;;10.30;;
55362;SDS011;41244;49.242;9.060;2023-08-20T02:07:04;12.20;;;9.52;;
55362;SDS011;41244;49.242;9.060;2023-08-20T02:09:31;11.27;;;10.20;;
55362;SDS011;41244;49.242;9.060;2023-08-20T02:11:57;12.65;;;9.65;;
55362;SDS011;41244;49.242;9.060;2023-08-20T02:14:22;15.35;;;10.98;;
55362;SDS011;41244;49.242;9.060;2023-08-20T02:16:48;11.25;;;10.02;;
55362;SDS011;41244;49.242;9.060;2023-08-20T02:19:14;11.93;;;10.10;;
55362;SDS011;41244;49.242;9.060;2023-08-20T02:21:40;10.77;;;9.68;;
55362;SDS011;41244;49.242;9.060;2023-08-20T02:24:06;11.60;;;10.40;;
55362;SDS011;41244;49.242;9.060;2023-08-20T02:26:32;11.68;;;9.60;;
55362;SDS011;41244;49.242;9.060;2023-08-20T02:28:58;11.82;;;10.63;;
55362;SDS011;41244;49.242;9.060;2023-08-20T02:31:24;10.25;;;9.18;;
55362;SDS011;41244;49.242;9.060;2023-08-20T02:33:50;15.13;;;10.45;;
55362;SDS011;41244;49.242;9.060;2023-08-20T02:36:15;12.55;;;9.05;;
55362;SDS011;41244;49.242;9.060;2023-08-20T02:38:41;11.27;;;10.07;;
55362;SDS011;41244;49.242;9.060;2023-08-20T02:41:07;14.68;;;10.00;;
55362;SDS011;41244;49.242;9.060;2023-08-20T02:43:32;11.40;;;10.23;;
55362;SDS011;41244;49.242;9.060;2023-08-20T02:45:58;12.52;;;9.70;;
55362;SDS011;41244;49.242;9.060;2023-08-20T02:48:24;11.50;;;10.38;;
55362;SDS011;41244;49.242;9.060;2023-08-20T02:50:52;12.90;;;10.15;;
55362;SDS011;41244;49.242;9.060;2023-08-20T02:53:21;10.90;;;9.88;;
55362;SDS011;41244;49.242;9.060;2023-08-20T02:55:47;10.52;;;9.52;;
55362;SDS011;41244;49.242;9.060;2023-08-20T02:58:13;12.00;;;10.85;;
55362;SDS011;41244;49.242;9.060;2023-08-20T03:00:39;10.90;;;9.85;;
55362;SDS011;41244;49.242;9.060;2023-08-20T03:03:07;11.85;;;10.50;;
55362;SDS011;41244;49.242;9.060;2023-08-20T03:05:33;11.77;;;10.43;;
55362;SDS011;41244;49.242;9.060;2023-08-20T03:07:59;11.52;;;10.43;;
55362;SDS011;41244;49.242;9.060;2023-08-20T03:10:26;14.13;;;10.25;;
55362;SDS011;41244;49.242;9.060;2023-08-20T03:12:52;10.45;;;9.35;;
55362;SDS011;41244;49.242;9.060;2023-08-20T03:15:18;11.55;;;10.55;;
55362;SDS011;41244;49.242;9.060;2023-08-20T03:17:44;10.18;;;9.27;;
55362;SDS011;41244;49.242;9.060;2023-08-20T03:20:10;14.38;;;10.43;;
55362;SDS011;41244;49.242;9.060;2023-08-20T03:22:36;10.52;;;9.10;;
55362;SDS011;41244;49.242;9.060;2023-08-20T03:25:03;10.77;;;9.77;;
55362;SDS011;41244;49.242;9.060;2023-08-20T03:27:30;11.52;;;10.18;;
55362;SDS011;41244;49.242;9.060;2023-08-20T03:29:55;10.95;;;10.00;;
55362;SDS011;41244;49.242;9.060;2023-08-20T03:32:22;11.57;;;10.48;;
55362;SDS011;41244;49.242;9.060;2023-08-20T03:34:48;12.15;;;9.82;;
55362;SDS011;41244;49.242;9.060;2023-08-20T03:37:14;10.20;;;9.23;;
55362;SDS011;41244;49.242;9.060;2023-08-20T03:39:40;10.82;;;9.70;;
55362;SDS011;41244;49.242;9.060;2023-08-20T03:42:06;12.80;;;10.82;;
55362;SDS011;41244;49.242;9.060;2023-08-20T03:44:32;11.50;;;9.98;;
55362;SDS011;41244;49.242;9.060;2023-08-20T03:46:58;10.05;;;8.95;;
55362;SDS011;41244;49.242;9.060;2023-08-20T03:49:23;10.30;;;8.90;;
55362;SDS011;41244;49.242;9.060;2023-08-20T03:51:49;12.45;;;10.25;;
55362;SDS011;41244;49.242;9.060;2023-08-20T03:54:15;11.05;;;10.05;;
55362;SDS011;41244;49.242;9.060;2023-08-20T03:56:41;10.35;;;9.45;;
55362;SDS011;41244;49.242;9.060;2023-08-20T03:59:07;11.15;;;9.93;;
55362;SDS011;41244;49.242;9.060;2023-08-20T04:01:33;12.70;;;11.02;;
55362;SDS011;41244;49.242;9.060;2023-08-20T04:04:01;11.55;;;10.00;;
55362;SDS011;41244;49.242;9.060;2023-08-20T04:06:30;10.05;;;9.05;;
55362;SDS011;41244;49.242;9.060;2023-08-20T04:08:56;10.95;;;9.82;;
55362;SDS011;41244;49.242;9.060;2023-08-20T04:11:22;11.70;;;10.60;;
55362;SDS011;41244;49.242;9.060;2023-08-20T04:13:48;13.48;;;10.90;;
55362;SDS011;41244;49.242;9.060;2023-08-20T04:16:14;13.52;;;12.13;;
55362;SDS011;41244;49.242;9.060;2023-08-20T04:18:40;10.98;;;9.82;;
55362;SDS011;41244;49.242;9.060;2023-08-20T04:21:06;11.85;;;10.45;;
55362;SDS011;41244;49.242;9.060;2023-08-20T04:23:34;11.40;;;9.27;;
55362;SDS011;41244;49.242;9.060;2023-08-20T04:26:00;10.65;;;9.57;;
55362;SDS011;41244;49.242;9.060;2023-08-20T04:28:26;11.90;;;10.80;;
55362;SDS011;41244;49.242;9.060;2023-08-20T04:30:52;12.57;;;11.27;;
55362;SDS011;41244;49.242;9.060;2023-08-20T04:33:19;15.27;;;11.60;;
55362;SDS011;41244;49.242;9.060;2023-08-20T04:35:45;14.13;;;10.57;;
55362;SDS011;41244;49.242;9.060;2023-08-20T04:38:15;11.98;;;10.80;;
55362;SDS011;41244;49.242;9.060;2023-08-20T04:40:40;10.90;;;9.85;;
55362;SDS011;41244;49.242;9.060;2023-08-20T04:43:06;12.70;;;9.60;;
55362;SDS011;41244;49.242;9.060;2023-08-20T04:45:32;11.30;;;10.20;;
55362;SDS011;41244;49.242;9.060;2023-08-20T04:47:59;12.02;;;10.82;;
55362;SDS011;41244;49.242;9.060;2023-08-20T04:50:25;11.02;;;9.98;;
55362;SDS011;41244;49.242;9.060;2023-08-20T04:52:50;12.75;;;10.52;;
55362;SDS011;41244;49.242;9.060;2023-08-20T04:55:16;13.32;;;10.68;;
55362;SDS011;41244;49.242;9.060;2023-08-20T04:57:42;11.75;;;10.55;;
55362;SDS011;41244;49.242;9.060;2023-08-20T05:00:08;12.32;;;10.93;;
55362;SDS011;41244;49.242;9.060;2023-08-20T05:02:34;10.90;;;9.63;;
55362;SDS011;41244;49.242;9.060;2023-08-20T05:05:01;12.57;;;10.68;;
55362;SDS011;41244;49.242;9.060;2023-08-20T05:07:27;17.08;;;11.57;;
55362;SDS011;41244;49.242;9.060;2023-08-20T05:09:53;12.70;;;11.32;;
55362;SDS011;41244;49.242;9.060;2023-08-20T05:12:19;12.10;;;10.25;;
55362;SDS011;41244;49.242;9.060;2023-08-20T05:14:45;11.75;;;10.25;;
55362;SDS011;41244;49.242;9.060;2023-08-20T05:17:10;13.18;;;11.73;;
55362;SDS011;41244;49.242;9.060;2023-08-20T05:19:36;11.88;;;10.68;;
55362;SDS011;41244;49.242;9.060;2023-08-20T05:22:02;12.68;;;11.38;;
55362;SDS011;41244;49.242;9.060;2023-08-20T05:24:28;12.85;;;11.60;;
55362;SDS011;41244;49.242;9.060;2023-08-20T05:27:03;13.00;;;11.65;;
55362;SDS011;41244;49.242;9.060;2023-08-20T05:29:33;13.68;;;12.27;;
55362;SDS011;41244;49.242;9.060;2023-08-20T05:31:59;14.10;;;12.38;;
55362;SDS011;41244;49.242;9.060;2023-08-20T05:34:24;13.18;;;11.85;;
55362;SDS011;41244;49.242;9.060;2023-08-20T05:36:50;13.25;;;11.85;;
55362;SDS011;41244;49.242;9.060;2023-08-20T05:39:16;16.25;;;11.82;;
55362;SDS011;41244;49.242;9.060;2023-08-20T05:41:42;17.30;;;12.90;;
55362;SDS011;41244;49.242;9.060;2023-08-20T05:44:09;14.35;;;12.88;;
55362;SDS011;41244;49.242;9.060;2023-08-20T05:46:35;18.58;;;12.30;;
55362;SDS011;41244;49.242;9.060;2023-08-20T05:49:01;14.15;;;12.73;;
55362;SDS011;41244;49.242;9.060;2023-08-20T05:51:27;15.60;;;13.35;;
55362;SDS011;41244;49.242;9.060;2023-08-20T05:53:52;20.83;;;13.55;;
55362;SDS011;41244;49.242;9.060;2023-08-20T05:56:18;15.65;;;13.65;;
55362;SDS011;41244;49.242;9.060;2023-08-20T05:58:44;15.68;;;14.13;;
55362;SDS011;41244;49.242;9.060;2023-08-20T06:01:10;16.08;;;13.82;;
55362;SDS011;41244;49.242;9.060;2023-08-20T06:03:36;15.95;;;14.20;;
55362;SDS011;41244;49.242;9.060;2023-08-20T06:06:02;15.07;;;13.77;;
55362;SDS011;41244;49.242;9.060;2023-08-20T06:08:27;16.50;;;14.77;;
55362;SDS011;41244;49.242;9.060;2023-08-20T06:10:53;15.52;;;14.15;;
55362;SDS011;41244;49.242;9.060;2023-08-20T06:13:19;15.38;;;13.98;;
55362;SDS011;41244;49.242;9.060;2023-08-20T06:15:45;16.52;;;13.90;;
55362;SDS011;41244;49.242;9.060;2023-08-20T06:18:11;16.00;;;14.38;;
55362;SDS011;41244;49.242;9.060;2023-08-20T06:20:36;15.18;;;13.73;;
55362;SDS011;41244;49.242;9.060;2023-08-20T06:23:02;15.23;;;13.68;;
55362;SDS011;41244;49.242;9.060;2023-08-20T06:25:28;16.40;;;14.43;;
55362;SDS011;41244;49.242;9.060;2023-08-20T06:27:54;18.00;;;15.30;;
55362;SDS011;41244;49.242;9.060;2023-08-20T06:30:20;15.70;;;14.05;;
55362;SDS011;41244;49.242;9.060;2023-08-20T06:32:45;15.63;;;13.95;;
55362;SDS011;41244;49.242;9.060;2023-08-20T06:35:11;15.23;;;13.77;;
55362;SDS011;41244;49.242;9.060;2023-08-20T06:37:40;17.88;;;13.75;;
55362;SDS011;41244;49.242;9.060;2023-08-20T06:40:06;16.70;;;15.02;;
55362;SDS011;41244;49.242;9.060;2023-08-20T06:42:32;19.52;;;15.85;;
55362;SDS011;41244;49.242;9.060;2023-08-20T06:44:58;16.13;;;14.65;;
55362;SDS011;41244;49.242;9.060;2023-08-20T06:47:24;17.38;;;14.60;;
55362;SDS011;41244;49.242;9.060;2023-08-20T06:49:50;19.88;;;15.48;;
55362;SDS011;41244;49.242;9.060;2023-08-20T06:52:16;16.90;;;15.05;;
55362;SDS011;41244;49.242;9.060;2023-08-20T06:54:42;16.80;;;15.00;;
55362;SDS011;41244;49.242;9.060;2023-08-20T06:57:09;17.48;;;15.38;;
55362;SDS011;41244;49.242;9.060;2023-08-20T06:59:35;16.80;;;14.85;;
55362;SDS011;41244;49.242;9.060;2023-08-20T07:02:00;16.33;;;14.73;;
55362;SDS011;41244;49.242;9.060;2023-08-20T07:04:28;16.33;;;14.73;;
55362;SDS011;41244;49.242;9.060;2023-08-20T07:06:54;16.60;;;15.02;;
55362;SDS011;41244;49.242;9.060;2023-08-20T07:09:19;19.48;;;14.55;;
55362;SDS011;41244;49.242;9.060;2023-08-20T07:11:45;15.50;;;13.88;;
55362;SDS011;41244;49.242;9.060;2023-08-20T07:14:11;15.52;;;13.98;;
55362;SDS011;41244;49.242;9.060;2023-08-20T07:16:37;15.20;;;13.75;;
55362;SDS011;41244;49.242;9.060;2023-08-20T07:19:03;16.88;;;14.20;;
55362;SDS011;41244;49.242;9.060;2023-08-20T07:21:29;18.25;;;14.57;;
55362;SDS011;41244;49.242;9.060;2023-08-20T07:23:54;16.50;;;14.32;;
55362;SDS011;41244;49.242;9.060;2023-08-20T07:26:21;17.58;;;13.93;;
55362;SDS011;41244;49.242;9.060;2023-08-20T07:28:47;15.07;;;13.65;;
55362;SDS011;41244;49.242;9.060;2023-08-20T07:31:23;16.05;;;14.40;;
55362;SDS011;41244;49.242;9.060;2023-08-20T07:33:56;16.48;;;14.88;;
55362;SDS011;41244;49.242;9.060;2023-08-20T07:36:24;19.58;;;16.05;;
55362;SDS011;41244;49.242;9.060;2023-08-20T07:38:50;18.38;;;16.30;;
55362;SDS011;41244;49.242;9.060;2023-08-20T07:41:18;20.20;;;15.82;;
55362;SDS011;41244;49.242;9.060;2023-08-20T07:43:47;17.67;;;15.93;;
55362;SDS011;41244;49.242;9.060;2023-08-20T07:46:14;15.40;;;13.90;;
55362;SDS011;41244;49.242;9.060;2023-08-20T07:48:40;16.73;;;14.55;;
55362;SDS011;41244;49.242;9.060;2023-08-20T07:51:06;16.05;;;14.23;;
55362;SDS011;41244;49.242;9.060;2023-08-20T07:53:32;14.82;;;13.30;;
55362;SDS011;41244;49.242;9.060;2023-08-20T07:56:00;16.20;;;13.13;;
55362;SDS011;41244;49.242;9.060;2023-08-20T07:58:26;16.58;;;12.65;;
55362;SDS011;41244;49.242;9.060;2023-08-20T08:00:53;14.27;;;12.85;;
55362;SDS011;41244;49.242;9.060;2023-08-20T08:03:19;16.42;;;13.32;;
55362;SDS011;41244;49.242;9.060;2023-08-20T08:05:48;13.55;;;12.10;;
55362;SDS011;41244;49.242;9.060;2023-08-20T08:08:18;15.98;;;12.02;;
55362;SDS011;41244;49.242;9.060;2023-08-20T08:10:45;13.00;;;11.80;;
55362;SDS011;41244;49.242;9.060;2023-08-20T08:13:11;12.23;;;11.13;;
55362;SDS011;41244;49.242;9.060;2023-08-20T08:15:38;12.02;;;10.77;;
55362;SDS011;41244;49.242;9.060;2023-08-20T08:18:04;11.13;;;10.02;;
55362;SDS011;41244;49.242;9.060;2023-08-20T08:20:30;11.25;;;9.75;;
55362;SDS011;41244;49.242;9.060;2023-08-20T08:22:56;11.70;;;10.27;;
55362;SDS011;41244;49.242;9.060;2023-08-20T08:25:22;12.00;;;9.18;;
55362;SDS011;41244;49.242;9.060;2023-08-20T08:27:48;9.75;;;7.93;;
55362;SDS011;41244;49.242;9.060;2023-08-20T08:30:14;8.70;;;7.90;;
55362;SDS011;41244;49.242;9.060;2023-08-20T08:32:39;13.77;;;8.80;;
55362;SDS011;41244;49.242;9.060;2023-08-20T08:35:06;9.48;;;8.10;;
55362;SDS011;41244;49.242;9.060;2023-08-20T08:37:32;11.20;;;8.48;;
55362;SDS011;41244;49.242;9.060;2023-08-20T08:39:58;10.10;;;8.02;;
55362;SDS011;41244;49.242;9.060;2023-08-20T08:42:24;8.45;;;7.63;;
55362;SDS011;41244;49.242;9.060;2023-08-20T08:44:50;10.02;;;7.90;;
55362;SDS011;41244;49.242;9.060;2023-08-20T08:47:16;11.50;;;8.55;;
55362;SDS011;41244;49.242;9.060;2023-08-20T08:49:44;10.85;;;8.02;;
55362;SDS011;41244;49.242;9.060;2023-08-20T08:52:11;9.05;;;8.02;;
55362;SDS011;41244;49.242;9.060;2023-08-20T08:54:37;9.68;;;7.50;;
55362;SDS011;41244;49.242;9.060;2023-08-20T08:57:03;8.45;;;7.32;;
55362;SDS011;41244;49.242;9.060;2023-08-20T08:59:30;14.50;;;7.95;;
55362;SDS011;41244;49.242;9.060;2023-08-20T09:01:56;11.05;;;7.30;;
55362;SDS011;41244;49.242;9.060;2023-08-20T09:04:23;9.98;;;7.10;;
55362;SDS011;41244;49.242;9.060;2023-08-20T09:06:49;7.93;;;7.13;;
55362;SDS011;41244;49.242;9.060;2023-08-20T09:09:19;8.38;;;7.47;;
55362;SDS011;41244;49.242;9.060;2023-08-20T09:11:46;11.20;;;7.32;;
55362;SDS011;41244;49.242;9.060;2023-08-20T09:14:22;9.18;;;8.15;;
55362;SDS011;41244;49.242;9.060;2023-08-20T09:16:58;13.30;;;7.57;;
55362;SDS011;41244;49.242;9.060;2023-08-20T09:19:34;10.98;;;7.20;;
55362;SDS011;41244;49.242;9.060;2023-08-20T09:22:02;8.30;;;7.50;;
55362;SDS011;41244;49.242;9.060;2023-08-20T09:24:32;10.07;;;7.28;;
55362;SDS011;41244;49.242;9.060;2023-08-20T09:27:13;10.02;;;7.55;;
55362;SDS011;41244;49.242;9.060;2023-08-20T09:29:46;11.63;;;7.55;;
55362;SDS011;41244;49.242;9.060;2023-08-20T09:32:24;9.98;;;7.25;;
55362;SDS011;41244;49.242;9.060;2023-08-20T09:34:53;10.68;;;7.18;;
55362;SDS011;41244;49.242;9.060;2023-08-20T09:37:20;11.40;;;7.03;;
55362;SDS011;41244;49.242;9.060;2023-08-20T09:39:48;9.10;;;7.43;;
55362;SDS011;41244;49.242;9.060;2023-08-20T09:42:14;9.10;;;6.72;;
55362;SDS011;41244;49.242;9.060;2023-08-20T09:44:41;10.77;;;7.75;;
55362;SDS011;41244;49.242;9.060;2023-08-20T09:47:13;9.30;;;6.97;;
55362;SDS011;41244;49.242;9.060;2023-08-20T09:49:41;9.60;;;6.90;;
55362;SDS011;41244;49.242;9.060;2023-08-20T09:52:16;9.00;;;8.10;;
55362;SDS011;41244;49.242;9.060;2023-08-20T09:57:42;10.13;;;6.53;;
55362;SDS011;41244;49.242;9.060;2023-08-20T10:00:09;7.07;;;6.20;;
55362;SDS011;41244;49.242;9.060;2023-08-20T10:02:39;8.82;;;6.45;;
55362;SDS011;41244;49.242;9.060;2023-08-20T10:05:07;7.40;;;6.63;;
55362;SDS011;41244;49.242;9.060;2023-08-20T10:07:35;12.65;;;7.00;;
55362;SDS011;41244;49.242;9.060;2023-08-20T10:10:02;10.32;;;9.23;;
55362;SDS011;41244;49.242;9.060;2023-08-20T10:12:31;7.35;;;6.50;;
55362;SDS011;41244;49.242;9.060;2023-08-20T10:14:57;8.23;;;6.47;;
55362;SDS011;41244;49.242;9.060;2023-08-20T10:17:25;7.53;;;5.53;;
55362;SDS011;41244;49.242;9.060;2023-08-20T10:19:57;6.40;;;5.80;;
55362;SDS011;41244;49.242;9.060;2023-08-20T10:25:09;6.88;;;5.72;;
55362;SDS011;41244;49.242;9.060;2023-08-20T10:27:38;6.97;;;5.63;;
55362;SDS011;41244;49.242;9.060;2023-08-20T10:30:09;8.93;;;5.53;;
55362;SDS011;41244;49.242;9.060;2023-08-20T10:32:52;10.07;;;5.68;;
55362;SDS011;41244;49.242;9.060;2023-08-20T10:38:11;11.30;;;6.55;;
55362;SDS011;41244;49.242;9.060;2023-08-20T10:48:42;5.32;;;4.82;;
55362;SDS011;41244;49.242;9.060;2023-08-20T10:56:26;6.32;;;5.68;;
55362;SDS011;41244;49.242;9.060;2023-08-20T10:59:09;9.05;;;5.28;;
55362;SDS011;41244;49.242;9.060;2023-08-20T11:01:39;6.10;;;5.50;;
55362;SDS011;41244;49.242;9.060;2023-08-20T11:04:06;8.30;;;5.88;;
55362;SDS011;41244;49.242;9.060;2023-08-20T11:06:32;7.28;;;5.10;;
55362;SDS011;41244;49.242;9.060;2023-08-20T11:08:59;6.15;;;5.10;;
55362;SDS011;41244;49.242;9.060;2023-08-20T11:11:25;7.13;;;5.38;;
55362;SDS011;41244;49.242;9.060;2023-08-20T11:13:50;5.20;;;4.70;;
55362;SDS011;41244;49.242;9.060;2023-08-20T11:16:17;7.35;;;5.43;;
55362;SDS011;41244;49.242;9.060;2023-08-20T11:18:43;7.00;;;5.43;;
55362;SDS011;41244;49.242;9.060;2023-08-20T11:21:08;6.25;;;5.20;;
55362;SDS011;41244;49.242;9.060;2023-08-20T11:23:34;8.45;;;5.20;;
55362;SDS011;41244;49.242;9.060;2023-08-20T11:26:03;6.13;;;4.93;;
55362;SDS011;41244;49.242;9.060;2023-08-20T11:28:28;5.93;;;5.40;;
55362;SDS011;41244;49.242;9.060;2023-08-20T11:30:54;7.72;;;5.75;;
55362;SDS011;41244;49.242;9.060;2023-08-20T11:33:23;5.57;;;5.07;;
55362;SDS011;41244;49.242;9.060;2023-08-20T11:35:51;7.20;;;5.35;;
55362;SDS011;41244;49.242;9.060;2023-08-20T11:38:17;7.60;;;5.57;;
55362;SDS011;41244;49.242;9.060;2023-08-20T11:40:42;8.48;;;6.50;;
55362;SDS011;41244;49.242;9.060;2023-08-20T11:43:08;8.10;;;6.88;;
55362;SDS011;41244;49.242;9.060;2023-08-20T11:45:43;11.30;;;5.80;;
55362;SDS011;41244;49.242;9.060;2023-08-20T11:48:10;6.82;;;5.75;;
55362;SDS011;41244;49.242;9.060;2023-08-20T11:50:36;9.00;;;5.13;;
55362;SDS011;41244;49.242;9.060;2023-08-20T11:53:02;6.30;;;5.20;;
55362;SDS011;41244;49.242;9.060;2023-08-20T11:55:29;10.93;;;5.47;;
55362;SDS011;41244;49.242;9.060;2023-08-20T11:57:55;29.88;;;27.02;;
55362;SDS011;41244;49.242;9.060;2023-08-20T12:00:24;6.88;;;5.60;;
55362;SDS011;41244;49.242;9.060;2023-08-20T12:02:54;8.18;;;5.88;;
55362;SDS011;41244;49.242;9.060;2023-08-20T12:05:30;6.45;;;5.40;;
55362;SDS011;41244;49.242;9.060;2023-08-20T12:10:25;7.10;;;5.47;;
55362;SDS011;41244;49.242;9.060;2023-08-20T12:12:53;11.75;;;6.70;;
55362;SDS011;41244;49.242;9.060;2023-08-20T12:15:20;8.57;;;6.22;;
55362;SDS011;41244;49.242;9.060;2023-08-20T12:17:56;5.85;;;4.90;;
55362;SDS011;41244;49.242;9.060;2023-08-20T12:20:27;6.55;;;5.05;;
55362;SDS011;41244;49.242;9.060;2023-08-20T12:22:54;8.15;;;5.47;;
55362;SDS011;41244;49.242;9.060;2023-08-20T12:25:21;6.35;;;5.13;;
55362;SDS011;41244;49.242;9.060;2023-08-20T12:27:47;7.85;;;5.50;;
55362;SDS011;41244;49.242;9.060;2023-08-20T12:30:13;7.85;;;4.90;;
55362;SDS011;41244;49.242;9.060;2023-08-20T12:32:38;5.53;;;4.88;;
55362;SDS011;41244;49.242;9.060;2023-08-20T12:35:04;7.50;;;4.97;;
55362;SDS011;41244;49.242;9.060;2023-08-20T12:37:31;5.18;;;4.70;;
55362;SDS011;41244;49.242;9.060;2023-08-20T12:39:57;7.63;;;5.22;;
55362;SDS011;41244;49.242;9.060;2023-08-20T12:42:23;6.63;;;6.00;;
55362;SDS011;41244;49.242;9.060;2023-08-20T12:44:49;7.18;;;4.75;;
55362;SDS011;41244;49.242;9.060;2023-08-20T12:47:14;7.65;;;5.03;;
55362;SDS011;41244;49.242;9.060;2023-08-20T12:49:40;7.97;;;5.10;;
55362;SDS011;41244;49.242;9.060;2023-08-20T12:52:06;8.55;;;5.13;;
55362;SDS011;41244;49.242;9.060;2023-08-20T12:54:32;6.70;;;5.00;;
55362;SDS011;41244;49.242;9.060;2023-08-20T12:56:58;5.60;;;5.07;;
55362;SDS011;41244;49.242;9.060;2023-08-20T12:59:23;5.50;;;4.85;;
55362;SDS011;41244;49.242;9.060;2023-08-20T13:01:49;7.30;;;5.18;;
55362;SDS011;41244;49.242;9.060;2023-08-20T13:04:15;9.00;;;5.10;;
55362;SDS011;41244;49.242;9.060;2023-08-20T13:06:41;6.68;;;5.43;;
55362;SDS011;41244;49.242;9.060;2023-08-20T13:09:07;6.25;;;5.10;;
55362;SDS011;41244;49.242;9.060;2023-08-20T13:11:34;5.70;;;5.13;;
55362;SDS011;41244;49.242;9.060;2023-08-20T13:14:01;5.47;;;4.90;;
55362;SDS011;41244;49.242;9.060;2023-08-20T13:16:27;6.30;;;4.85;;
55362;SDS011;41244;49.242;9.060;2023-08-20T13:18:54;6.78;;;4.80;;
55362;SDS011;41244;49.242;9.060;2023-08-20T13:21:20;7.88;;;5.05;;
55362;SDS011;41244;49.242;9.060;2023-08-20T13:23:46;6.25;;;4.95;;
55362;SDS011;41244;49.242;9.060;2023-08-20T13:26:12;7.00;;;4.80;;
55362;SDS011;41244;49.242;9.060;2023-08-20T13:28:39;6.72;;;5.00;;
55362;SDS011;41244;49.242;9.060;2023-08-20T13:31:05;5.53;;;4.90;;
55362;SDS011;41244;49.242;9.060;2023-08-20T13:33:31;7.00;;;5.40;;
55362;SDS011;41244;49.242;9.060;2023-08-20T13:35:57;8.88;;;5.10;;
55362;SDS011;41244;49.242;9.060;2023-08-20T13:38:23;7.18;;;5.00;;
55362;SDS011;41244;49.242;9.060;2023-08-20T13:40:50;6.45;;;4.80;;
55362;SDS011;41244;49.242;9.060;2023-08-20T13:43:15;6.03;;;5.40;;
55362;SDS011;41244;49.242;9.060;2023-08-20T13:45:41;8.30;;;5.15;;
55362;SDS011;41244;49.242;9.060;2023-08-20T13:48:07;5.90;;;5.25;;
55362;SDS011;41244;49.242;9.060;2023-08-20T13:50:33;6.38;;;4.82;;
55362;SDS011;41244;49.242;9.060;2023-08-20T13:52:58;7.95;;;5.25;;
55362;SDS011;41244;49.242;9.060;2023-08-20T13:55:24;7.93;;;5.00;;
55362;SDS011;41244;49.242;9.060;2023-08-20T13:57:50;6.32;;;4.70;;
55362;SDS011;41244;49.242;9.060;2023-08-20T14:00:16;9.27;;;5.57;;
55362;SDS011;41244;49.242;9.060;2023-08-20T14:02:41;8.45;;;5.57;;
55362;SDS011;41244;49.242;9.060;2023-08-20T14:05:08;5.15;;;4.65;;
55362;SDS011;41244;49.242;9.060;2023-08-20T14:07:34;6.72;;;4.97;;
55362;SDS011;41244;49.242;9.060;2023-08-20T14:10:00;6.63;;;4.53;;
55362;SDS011;41244;49.242;9.060;2023-08-20T14:12:29;10.02;;;4.80;;
55362;SDS011;41244;49.242;9.060;2023-08-20T14:14:55;6.90;;;4.78;;
55362;SDS011;41244;49.242;9.060;2023-08-20T14:17:20;5.45;;;4.88;;
55362;SDS011;41244;49.242;9.060;2023-08-20T14:19:46;10.85;;;5.13;;
55362;SDS011;41244;49.242;9.060;2023-08-20T14:22:12;7.00;;;4.90;;
55362;SDS011;41244;49.242;9.060;2023-08-20T14:24:38;7.00;;;4.85;;
55362;SDS011;41244;49.242;9.060;2023-08-20T14:27:04;9.07;;;5.30;;
55362;SDS011;41244;49.242;9.060;2023-08-20T14:29:32;7.65;;;5.07;;
55362;SDS011;41244;49.242;9.060;2023-08-20T14:31:58;5.95;;;5.15;;
55362;SDS011;41244;49.242;9.060;2023-08-20T14:34:23;6.07;;;5.00;;
55362;SDS011;41244;49.242;9.060;2023-08-20T14:36:49;6.70;;;5.00;;
55362;SDS011;41244;49.242;9.060;2023-08-20T14:39:15;6.90;;;5.18;;
55362;SDS011;41244;49.242;9.060;2023-08-20T14:41:41;6.97;;;4.57;;
55362;SDS011;41244;49.242;9.060;2023-08-20T14:44:07;7.43;;;5.13;;
55362;SDS011;41244;49.242;9.060;2023-08-20T14:46:33;6.10;;;4.90;;
55362;SDS011;41244;49.242;9.060;2023-08-20T14:48:58;7.10;;;4.60;;
55362;SDS011;41244;49.242;9.060;2023-08-20T14:51:24;8.05;;;5.40;;
55362;SDS011;41244;49.242;9.060;2023-08-20T14:53:50;6.32;;;4.60;;
55362;SDS011;41244;49.242;9.060;2023-08-20T14:56:16;7.30;;;4.93;;
55362;SDS011;41244;49.242;9.060;2023-08-20T14:58:41;7.43;;;6.15;;
55362;SDS011;41244;49.242;9.060;2023-08-20T15:01:08;6.28;;;5.10;;
55362;SDS011;41244;49.242;9.060;2023-08-20T15:03:33;6.47;;;4.90;;
55362;SDS011;41244;49.242;9.060;2023-08-20T15:05:59;8.00;;;5.13;;
55362;SDS011;41244;49.242;9.060;2023-08-20T15:08:25;6.18;;;5.22;;